KIPL/IPL METAR and TAF weather

Enter ICAO airport designator
Station Type Date Time Source
KIPL METAR 2019/10/15 21:53 UTC NOAA

KIPL 152153Z AUTO 12009KT 10SM CLR 34/06 A2987 RMK AO2 SLP117 T03390056


Station Type Date Time Source
KIPL Decoded METAR 2019/10/15 21:53 UTC NOAA

Imperial, Imperial County Airport, CA, United States (KIPL) 32-50-03N 115-34-43W -15M
Oct 15, 2019 - 05:53 PM EDT / 2019.10.15 2153 UTC
Wind: from the ESE (120 degrees) at 10 MPH (9 KT):0
Visibility: 10 mile(s):0
Sky conditions: clear
Temperature: 93.0 F (33.9 C)
Dew Point: 42.1 F (5.6 C)
Relative Humidity: 17%
Pressure (altimeter): 29.87 in. Hg (1011 hPa)
ob: KIPL 152153Z AUTO 12009KT 10SM CLR 34/06 A2987 RMK AO2 SLP117 T03390056
cycle: 22

Station Type Date Time Source
KIPL TAF 2019/10/15 18:22 UTC NOAA

TAF KIPL 151720Z 1518/1618 31004KT P6SM SKC
FM160300 28005KT P6SM FEW250

Example: see airport list